createdAt,value
2017-09-26T00:00:28.540Z,7.87
2017-09-26T00:02:54.755Z,8.40
2017-09-26T00:05:21.416Z,8.47
2017-09-26T00:07:47.555Z,7.97
2017-09-26T00:10:14.552Z,9.20
2017-09-26T00:12:40.744Z,10.37
2017-09-26T00:15:07.334Z,9.67
2017-09-26T00:17:33.555Z,8.70
2017-09-26T00:20:00.280Z,9.00
2017-09-26T00:22:26.527Z,9.20
2017-09-26T00:24:52.704Z,9.40
2017-09-26T00:27:18.932Z,8.73
2017-09-26T00:29:47.492Z,8.70
2017-09-26T00:32:13.729Z,8.57
2017-09-26T00:34:40.744Z,9.30
2017-09-26T00:37:06.973Z,8.17
2017-09-26T00:39:33.259Z,9.43
2017-09-26T00:41:59.538Z,9.47
2017-09-26T00:44:25.751Z,9.13
2017-09-26T00:46:51.983Z,9.90
2017-09-26T00:49:18.703Z,8.83
2017-09-26T00:51:44.979Z,9.77
2017-09-26T00:54:11.198Z,9.97
2017-09-26T00:56:37.424Z,8.33
2017-09-26T00:59:03.680Z,9.30
2017-09-26T01:01:32.587Z,8.70
2017-09-26T01:04:14.439Z,8.80
2017-09-26T01:06:43.644Z,8.60
2017-09-26T01:09:09.864Z,8.90
2017-09-26T01:11:37.353Z,9.33
2017-09-26T01:14:04.737Z,9.10
2017-09-26T01:16:31.013Z,8.17
2017-09-26T01:18:57.955Z,8.93
2017-09-26T01:21:25.923Z,9.87
2017-09-26T01:23:52.255Z,8.03
2017-09-26T01:26:18.475Z,9.03
2017-09-26T01:28:44.754Z,10.43
2017-09-26T01:31:11.683Z,9.37
2017-09-26T01:33:37.962Z,9.93
2017-09-26T01:36:04.855Z,9.40
2017-09-26T01:38:31.113Z,9.23
2017-09-26T01:41:10.396Z,10.60
2017-09-26T01:43:36.580Z,9.77
2017-09-26T01:46:03.601Z,10.47
2017-09-26T01:48:30.589Z,9.63
2017-09-26T01:50:56.827Z,10.57
2017-09-26T01:53:23.502Z,9.77
2017-09-26T01:55:49.743Z,9.50
2017-09-26T01:58:17.838Z,9.67
2017-09-26T02:00:44.819Z,8.23
2017-09-26T02:03:11.004Z,8.47
2017-09-26T02:05:38.317Z,9.10
2017-09-26T02:08:04.557Z,9.00
2017-09-26T02:10:45.712Z,9.80
2017-09-26T02:13:12.227Z,9.50
2017-09-26T02:15:38.411Z,9.40
2017-09-26T02:18:05.059Z,10.57
2017-09-26T02:20:32.024Z,10.17
2017-09-26T02:22:58.940Z,9.33
2017-09-26T02:25:25.117Z,10.80
2017-09-26T02:27:51.369Z,10.10
2017-09-26T02:30:18.314Z,8.90
2017-09-26T02:32:45.508Z,10.23
2017-09-26T02:35:12.473Z,8.77
2017-09-26T02:37:40.609Z,10.10
2017-09-26T02:40:09.106Z,9.60
2017-09-26T02:42:36.063Z,9.43
2017-09-26T02:45:03.044Z,9.80
2017-09-26T02:47:29.242Z,10.03
2017-09-26T02:49:56.192Z,9.93
2017-09-26T02:52:23.095Z,8.63
2017-09-26T02:54:49.291Z,9.03
2017-09-26T02:57:15.536Z,9.27
2017-09-26T02:59:41.774Z,9.20
2017-09-26T03:02:08.711Z,9.10
2017-09-26T03:04:35.181Z,9.93
2017-09-26T03:07:01.374Z,8.53
2017-09-26T03:09:27.577Z,9.73
2017-09-26T03:11:53.778Z,9.67
2017-09-26T03:14:20.762Z,9.50
2017-09-26T03:16:46.953Z,10.13
2017-09-26T03:19:13.893Z,9.53
2017-09-26T03:21:40.102Z,9.40
2017-09-26T03:24:06.311Z,9.80
2017-09-26T03:26:32.544Z,10.63
2017-09-26T03:28:58.834Z,10.70
2017-09-26T03:31:25.805Z,10.03
2017-09-26T03:33:51.999Z,9.60
2017-09-26T03:36:18.640Z,10.73
2017-09-26T03:38:45.631Z,9.60
2017-09-26T03:41:11.862Z,9.73
2017-09-26T03:43:38.062Z,8.87
2017-09-26T03:46:04.286Z,9.27
2017-09-26T03:48:30.498Z,10.10
2017-09-26T03:50:57.414Z,10.40
2017-09-26T03:53:24.618Z,9.70
2017-09-26T03:55:50.756Z,10.20
2017-09-26T03:58:17.346Z,9.70
2017-09-26T04:00:43.574Z,10.17
2017-09-26T04:03:09.853Z,9.63
2017-09-26T04:05:36.137Z,9.70
2017-09-26T04:08:02.334Z,8.90
2017-09-26T04:10:28.573Z,9.60
2017-09-26T04:12:54.764Z,10.10
2017-09-26T04:15:21.044Z,8.70
2017-09-26T04:17:47.307Z,9.27
2017-09-26T04:20:13.558Z,8.90
2017-09-26T04:22:39.813Z,8.47
2017-09-26T04:25:06.093Z,9.13
2017-09-26T04:27:32.322Z,9.80
2017-09-26T04:29:58.549Z,9.90
2017-09-26T04:32:25.513Z,9.93
2017-09-26T04:34:52.537Z,9.73
2017-09-26T04:37:20.254Z,11.30
2017-09-26T04:39:46.495Z,10.77
2017-09-26T04:42:12.784Z,9.07
2017-09-26T04:44:39.023Z,10.33
2017-09-26T04:47:05.241Z,11.03
2017-09-26T04:49:31.477Z,10.83
2017-09-26T04:51:57.821Z,11.33
2017-09-26T04:54:24.408Z,11.70
2017-09-26T04:56:52.149Z,12.50
2017-09-26T04:59:19.105Z,10.83
2017-09-26T05:01:45.363Z,9.00
2017-09-26T05:04:12.317Z,9.00
2017-09-26T05:06:39.274Z,8.13
2017-09-26T05:09:05.514Z,10.83
2017-09-26T05:11:31.710Z,8.47
2017-09-26T05:13:58.617Z,11.63
2017-09-26T05:16:25.123Z,10.30
2017-09-26T05:18:51.402Z,11.17
2017-09-26T05:21:18.721Z,12.50
2017-09-26T05:23:44.932Z,10.40
2017-09-26T05:26:11.117Z,11.13
2017-09-26T05:28:37.283Z,11.97
2017-09-26T05:31:03.460Z,11.03
2017-09-26T05:33:29.995Z,12.20
2017-09-26T05:35:56.170Z,11.60
2017-09-26T05:38:22.405Z,12.17
2017-09-26T05:40:48.583Z,10.97
2017-09-26T05:43:14.775Z,11.70
2017-09-26T05:45:40.967Z,11.27
2017-09-26T05:48:08.653Z,9.90
2017-09-26T05:50:35.847Z,10.13
2017-09-26T05:53:02.064Z,10.23
2017-09-26T05:55:28.653Z,8.77
2017-09-26T05:57:54.831Z,9.30
2017-09-26T06:00:21.061Z,8.30
2017-09-26T06:02:47.271Z,8.60
2017-09-26T06:05:13.480Z,8.43
2017-09-26T06:07:39.686Z,8.73
2017-09-26T06:10:06.652Z,8.70
2017-09-26T06:12:32.911Z,8.70
2017-09-26T06:14:59.107Z,8.33
2017-09-26T06:17:25.322Z,8.70
2017-09-26T06:19:52.284Z,9.00
2017-09-26T06:22:18.507Z,7.47
2017-09-26T06:24:45.482Z,7.30
2017-09-26T06:27:11.664Z,8.43
2017-09-26T06:29:38.633Z,8.40
2017-09-26T06:32:04.873Z,7.80
2017-09-26T06:34:31.070Z,8.90
2017-09-26T06:36:58.024Z,7.97
2017-09-26T06:39:24.952Z,7.73
2017-09-26T06:41:51.902Z,8.30
2017-09-26T06:44:18.145Z,7.50
2017-09-26T06:46:45.124Z,7.87
2017-09-26T06:49:11.344Z,7.40
2017-09-26T06:51:37.572Z,7.00
2017-09-26T06:54:03.793Z,6.37
2017-09-26T06:56:30.081Z,6.83
2017-09-26T06:58:57.040Z,6.93
2017-09-26T07:01:23.991Z,7.10
2017-09-26T07:03:50.941Z,6.20
2017-09-26T07:06:17.878Z,7.00
2017-09-26T07:08:45.592Z,7.47
2017-09-26T07:11:11.786Z,6.30
2017-09-26T07:13:38.392Z,6.70
2017-09-26T07:16:04.582Z,6.30
2017-09-26T07:18:30.843Z,5.93
2017-09-26T07:20:56.993Z,6.60
2017-09-26T07:23:23.980Z,8.07
2017-09-26T07:25:50.190Z,7.60
2017-09-26T07:28:17.094Z,7.30
2017-09-26T07:30:43.274Z,7.30
2017-09-26T07:33:09.503Z,6.70
2017-09-26T07:35:35.677Z,8.13
2017-09-26T07:38:01.858Z,7.10
2017-09-26T07:40:29.504Z,8.57
2017-09-26T07:42:56.448Z,8.67
2017-09-26T07:45:23.407Z,8.30
2017-09-26T07:47:49.628Z,10.27
2017-09-26T07:50:16.621Z,9.27
2017-09-26T07:52:44.496Z,9.80
2017-09-26T07:55:10.719Z,8.50
2017-09-26T07:57:36.950Z,6.63
2017-09-26T08:00:03.294Z,8.43
2017-09-26T08:02:30.138Z,10.70
2017-09-26T08:04:59.225Z,10.73
2017-09-26T08:07:26.768Z,11.60
2017-09-26T08:09:54.259Z,8.00
2017-09-26T08:12:20.454Z,9.87
2017-09-26T08:14:46.630Z,9.07
2017-09-26T08:17:12.855Z,11.10
2017-09-26T08:19:39.070Z,9.90
2017-09-26T08:22:05.266Z,12.57
2017-09-26T08:24:31.491Z,14.07
2017-09-26T08:26:57.680Z,14.53
2017-09-26T08:29:24.605Z,14.10
2017-09-26T08:31:51.555Z,11.13
2017-09-26T08:34:17.733Z,12.63
2017-09-26T08:36:43.930Z,13.80
2017-09-26T08:39:10.905Z,13.10
2017-09-26T08:41:37.085Z,12.07
2017-09-26T08:44:03.654Z,13.50
2017-09-26T08:46:30.600Z,13.40
2017-09-26T08:48:56.757Z,12.50
2017-09-26T08:51:23.016Z,13.00
2017-09-26T08:53:49.210Z,12.73
2017-09-26T08:56:15.370Z,13.03
2017-09-26T08:58:41.526Z,12.30
2017-09-26T09:01:08.474Z,12.70
2017-09-26T09:03:35.443Z,12.43
2017-09-26T09:06:01.615Z,12.27
2017-09-26T09:08:27.793Z,11.80
2017-09-26T09:10:53.983Z,12.23
2017-09-26T09:13:20.192Z,12.00
2017-09-26T09:15:46.395Z,12.13
2017-09-26T09:18:12.611Z,11.40
2017-09-26T09:20:38.801Z,12.87
2017-09-26T09:23:04.970Z,12.70
2017-09-26T09:25:31.146Z,11.33
2017-09-26T09:27:57.322Z,11.57
2017-09-26T09:30:23.501Z,12.37
2017-09-26T09:32:49.727Z,12.73
2017-09-26T09:35:15.923Z,12.17
2017-09-26T09:37:42.092Z,11.70
2017-09-26T09:40:08.342Z,11.83
2017-09-26T09:42:35.295Z,12.67
2017-09-26T09:45:02.202Z,13.27
2017-09-26T09:47:28.387Z,13.37
2017-09-26T09:49:54.538Z,14.03
2017-09-26T09:52:20.733Z,12.87
2017-09-26T09:54:46.910Z,14.13
2017-09-26T09:57:13.096Z,13.00
2017-09-26T09:59:39.393Z,12.80
2017-09-26T10:02:06.423Z,12.23
2017-09-26T10:04:32.590Z,13.10
2017-09-26T10:06:59.510Z,11.33
2017-09-26T10:09:25.870Z,12.20
2017-09-26T10:11:52.071Z,12.70
2017-09-26T10:14:18.281Z,11.00
2017-09-26T10:16:44.469Z,12.33
2017-09-26T10:19:10.662Z,11.10
2017-09-26T10:21:37.593Z,13.30
2017-09-26T10:24:05.590Z,12.50
2017-09-26T10:26:31.788Z,12.00
2017-09-26T10:28:58.001Z,12.30
2017-09-26T10:31:24.174Z,10.30
2017-09-26T10:33:51.116Z,14.77
2017-09-26T10:36:18.114Z,11.13
2017-09-26T10:38:45.262Z,11.30
2017-09-26T10:41:11.528Z,12.20
2017-09-26T10:43:37.763Z,12.03
2017-09-26T10:46:04.725Z,11.50
2017-09-26T10:48:30.947Z,10.30
2017-09-26T10:50:57.992Z,13.00
2017-09-26T10:53:24.947Z,10.67
2017-09-26T10:55:51.869Z,13.00
2017-09-26T10:58:18.060Z,12.60
2017-09-26T11:00:44.280Z,12.97
2017-09-26T11:03:10.559Z,11.80
2017-09-26T11:05:36.867Z,13.03
2017-09-26T11:08:04.140Z,11.73
2017-09-26T11:10:30.664Z,12.90
2017-09-26T11:12:56.902Z,11.53
2017-09-26T11:15:23.171Z,13.97
2017-09-26T11:17:49.406Z,12.60
2017-09-26T11:20:15.737Z,14.43
2017-09-26T11:22:42.204Z,13.50
2017-09-26T11:25:08.520Z,15.70
2017-09-26T11:27:34.900Z,14.90
2017-09-26T11:30:01.987Z,13.10
2017-09-26T11:32:28.216Z,13.80
2017-09-26T11:34:54.469Z,15.00
2017-09-26T11:37:20.704Z,11.80
2017-09-26T11:39:46.925Z,14.90
2017-09-26T11:42:13.182Z,14.90
2017-09-26T11:44:39.506Z,12.77
2017-09-26T11:47:05.779Z,12.83
2017-09-26T11:49:32.829Z,12.60
2017-09-26T11:51:59.876Z,13.20
2017-09-26T11:54:26.987Z,15.10
2017-09-26T11:56:53.251Z,15.43
2017-09-26T11:59:20.304Z,14.70
2017-09-26T12:01:47.412Z,12.50
2017-09-26T12:04:13.693Z,13.33
2017-09-26T12:06:39.966Z,13.30
2017-09-26T12:09:06.198Z,13.80
2017-09-26T12:11:33.218Z,14.63
2017-09-26T12:14:07.902Z,14.00
2017-09-26T12:16:35.839Z,14.57
2017-09-26T12:19:02.112Z,14.40
2017-09-26T12:21:28.549Z,16.00
2017-09-26T12:23:55.500Z,16.20
2017-09-26T12:26:22.481Z,15.13
2017-09-26T12:28:48.731Z,13.80
2017-09-26T12:31:15.009Z,14.63
2017-09-26T12:33:41.223Z,16.20
2017-09-26T12:36:08.356Z,15.43
2017-09-26T12:38:35.027Z,15.93
2017-09-26T12:41:02.106Z,15.67
2017-09-26T12:43:28.337Z,16.33
2017-09-26T12:45:54.568Z,17.13
2017-09-26T12:48:20.775Z,15.87
2017-09-26T12:50:47.030Z,16.17
2017-09-26T12:53:13.212Z,15.90
2017-09-26T12:55:40.412Z,16.00
2017-09-26T12:58:06.649Z,15.07
2017-09-26T13:00:32.903Z,16.80
2017-09-26T13:02:59.170Z,14.33
2017-09-26T13:05:25.415Z,16.00
2017-09-26T13:07:51.632Z,14.57
2017-09-26T13:10:17.842Z,13.80
2017-09-26T13:12:44.878Z,15.07
2017-09-26T13:15:11.803Z,14.40
2017-09-26T13:17:38.001Z,14.90
2017-09-26T13:20:05.482Z,22.77
2017-09-26T13:22:46.662Z,18.30
2017-09-26T13:25:13.298Z,15.30
2017-09-26T13:27:39.528Z,17.13
2017-09-26T13:30:05.796Z,17.40
2017-09-26T13:32:32.793Z,16.90
2017-09-26T13:34:59.095Z,17.57
2017-09-26T13:37:26.431Z,15.90
2017-09-26T13:40:07.995Z,14.90
2017-09-26T13:42:34.662Z,14.50
2017-09-26T13:45:01.720Z,13.90
2017-09-26T13:47:27.986Z,13.40
2017-09-26T13:49:54.251Z,13.17
2017-09-26T13:52:21.258Z,13.87
2017-09-26T13:54:47.608Z,13.27
2017-09-26T13:57:14.831Z,14.57
2017-09-26T13:59:41.523Z,13.60
2017-09-26T14:02:08.671Z,13.90
2017-09-26T14:04:35.763Z,12.20
2017-09-26T14:07:02.108Z,14.03
2017-09-26T14:09:28.313Z,13.50
2017-09-26T14:11:54.552Z,15.20
2017-09-26T14:14:20.738Z,14.90
2017-09-26T14:16:47.077Z,15.90
2017-09-26T14:19:14.595Z,14.70
2017-09-26T14:21:40.824Z,15.40
2017-09-26T14:24:07.293Z,15.60
2017-09-26T14:26:34.392Z,14.27
2017-09-26T14:29:00.884Z,15.10
2017-09-26T14:31:27.863Z,14.53
2017-09-26T14:33:54.182Z,15.57
2017-09-26T14:36:20.440Z,13.67
2017-09-26T14:38:46.742Z,14.83
2017-09-26T14:41:13.018Z,15.70
2017-09-26T14:43:40.315Z,15.03
2017-09-26T14:46:07.374Z,15.17
2017-09-26T14:48:33.955Z,14.13
2017-09-26T14:51:00.314Z,13.70
2017-09-26T14:53:27.874Z,14.40
2017-09-26T14:55:54.200Z,13.57
2017-09-26T14:58:20.455Z,15.63
2017-09-26T15:00:47.515Z,14.53
2017-09-26T15:03:13.765Z,14.93
2017-09-26T15:05:40.020Z,13.80
2017-09-26T15:08:06.335Z,15.60
2017-09-26T15:10:32.615Z,14.37
2017-09-26T15:12:59.712Z,15.10
2017-09-26T15:15:25.963Z,14.90
2017-09-26T15:17:52.612Z,14.40
2017-09-26T15:20:18.954Z,11.93
2017-09-26T15:22:46.396Z,13.50
2017-09-26T15:25:12.720Z,12.50
2017-09-26T15:27:39.000Z,13.93
2017-09-26T15:30:05.246Z,13.13
2017-09-26T15:32:31.489Z,15.40
2017-09-26T15:34:57.946Z,12.43
2017-09-26T15:37:24.155Z,13.80
2017-09-26T15:39:50.517Z,13.60
2017-09-26T15:42:16.786Z,13.50
2017-09-26T15:44:43.848Z,13.87
2017-09-26T15:47:10.107Z,13.60
2017-09-26T15:49:36.407Z,13.63
2017-09-26T15:52:02.604Z,13.80
2017-09-26T15:54:29.591Z,14.23
2017-09-26T15:56:56.525Z,12.30
2017-09-26T15:59:22.752Z,14.07
2017-09-26T16:01:49.117Z,10.03
2017-09-26T16:04:15.344Z,14.37
2017-09-26T16:06:42.485Z,13.83
2017-09-26T16:09:08.740Z,12.70
2017-09-26T16:11:34.920Z,13.67
2017-09-26T16:14:01.189Z,14.03
2017-09-26T16:16:27.775Z,14.03
2017-09-26T16:18:54.782Z,14.47
2017-09-26T16:21:26.845Z,12.00
2017-09-26T16:23:53.398Z,13.30
2017-09-26T16:26:19.681Z,13.30
2017-09-26T16:28:46.053Z,13.50
2017-09-26T16:31:12.383Z,13.63
2017-09-26T16:33:38.617Z,13.13
2017-09-26T16:36:04.876Z,13.93
2017-09-26T16:38:31.087Z,14.27
2017-09-26T16:40:57.360Z,14.83
2017-09-26T16:43:24.034Z,15.17
2017-09-26T16:45:50.313Z,14.43
2017-09-26T16:48:16.573Z,13.77
2017-09-26T16:50:42.870Z,13.00
2017-09-26T16:53:10.890Z,11.10
2017-09-26T16:55:37.170Z,12.37
2017-09-26T16:58:04.943Z,11.07
2017-09-26T17:00:31.987Z,11.73
2017-09-26T17:02:58.281Z,10.90
2017-09-26T17:05:24.611Z,12.10
2017-09-26T17:07:51.267Z,10.70
2017-09-26T17:10:18.328Z,10.50
2017-09-26T17:12:45.438Z,10.70
2017-09-26T17:15:12.087Z,10.20
2017-09-26T17:17:39.808Z,10.37
2017-09-26T17:20:06.084Z,9.50
2017-09-26T17:22:32.322Z,10.17
2017-09-26T17:24:58.596Z,11.20
2017-09-26T17:27:24.884Z,9.90
2017-09-26T17:29:51.949Z,10.03
2017-09-26T17:32:18.260Z,10.30
2017-09-26T17:34:44.617Z,9.90
2017-09-26T17:37:10.885Z,10.03
2017-09-26T17:39:37.171Z,9.80
2017-09-26T17:42:04.164Z,11.67
2017-09-26T17:44:30.544Z,9.77
2017-09-26T17:47:01.791Z,10.80
2017-09-26T17:49:28.909Z,10.87
2017-09-26T17:51:55.292Z,10.30
2017-09-26T17:54:21.981Z,10.82
2017-09-26T17:56:48.256Z,11.30
2017-09-26T17:59:14.583Z,11.17
2017-09-26T18:01:41.560Z,10.00
2017-09-26T18:04:08.315Z,11.13
2017-09-26T18:06:34.635Z,11.40
2017-09-26T18:09:01.806Z,8.70
2017-09-26T18:11:28.129Z,11.77
2017-09-26T18:13:54.422Z,11.10
2017-09-26T18:16:20.664Z,10.40
2017-09-26T18:18:47.016Z,9.93
2017-09-26T18:21:13.987Z,10.67
2017-09-26T18:23:40.215Z,13.10
2017-09-26T18:26:06.586Z,12.40
2017-09-26T18:28:33.633Z,10.37
2017-09-26T18:31:00.748Z,10.70
2017-09-26T18:33:27.023Z,12.30
2017-09-26T18:35:54.382Z,9.63
2017-09-26T18:38:20.715Z,9.00
2017-09-26T18:40:52.116Z,10.83
2017-09-26T18:43:19.130Z,10.90
2017-09-26T18:45:45.790Z,10.53
2017-09-26T18:48:12.387Z,11.30
2017-09-26T18:50:39.519Z,12.37
2017-09-26T18:53:06.888Z,12.80
2017-09-26T18:55:40.114Z,12.70
2017-09-26T18:58:08.377Z,12.27
2017-09-26T19:00:34.683Z,12.67
2017-09-26T19:03:02.115Z,12.37
2017-09-26T19:05:29.368Z,12.67
2017-09-26T19:07:55.637Z,11.70
2017-09-26T19:10:21.878Z,10.70
2017-09-26T19:12:49.217Z,11.00
2017-09-26T19:15:15.994Z,12.40
2017-09-26T19:17:42.238Z,12.40
2017-09-26T19:20:08.513Z,11.77
2017-09-26T19:22:34.815Z,12.53
2017-09-26T19:25:01.181Z,11.90
2017-09-26T19:27:27.483Z,11.00
2017-09-26T19:29:53.878Z,11.70
2017-09-26T19:32:20.154Z,12.93
2017-09-26T19:34:52.313Z,12.20
2017-09-26T19:37:18.596Z,12.27
2017-09-26T19:39:46.106Z,13.23
2017-09-26T19:42:13.163Z,10.37
2017-09-26T19:44:40.243Z,12.10
2017-09-26T19:47:07.069Z,11.50
2017-09-26T19:49:34.058Z,12.30
2017-09-26T19:52:01.038Z,13.00
2017-09-26T19:54:27.389Z,11.83
2017-09-26T19:56:54.107Z,12.47
2017-09-26T19:59:20.471Z,11.57
2017-09-26T20:01:47.636Z,10.80
2017-09-26T20:04:28.868Z,11.43
2017-09-26T20:06:55.678Z,10.83
2017-09-26T20:09:21.920Z,11.50
2017-09-26T20:11:48.658Z,10.63
2017-09-26T20:14:15.365Z,10.90
2017-09-26T20:16:41.799Z,11.77
2017-09-26T20:19:08.237Z,12.40
2017-09-26T20:21:34.691Z,11.33
2017-09-26T20:24:00.971Z,11.87
2017-09-26T20:26:28.067Z,12.00
2017-09-26T20:28:54.414Z,13.17
2017-09-26T20:31:21.316Z,11.90
2017-09-26T20:33:48.107Z,11.90
2017-09-26T20:36:14.632Z,12.60
2017-09-26T20:38:40.969Z,12.23
2017-09-26T20:41:07.563Z,12.00
2017-09-26T20:43:33.885Z,10.70
2017-09-26T20:46:00.892Z,11.40
2017-09-26T20:48:27.252Z,12.17
2017-09-26T20:50:54.263Z,12.87
2017-09-26T20:53:20.584Z,11.50
2017-09-26T20:55:47.226Z,12.63
2017-09-26T20:58:13.565Z,11.80
2017-09-26T21:00:39.815Z,11.20
2017-09-26T21:03:06.260Z,12.10
2017-09-26T21:05:33.370Z,11.40
2017-09-26T21:07:59.672Z,10.83
2017-09-26T21:10:27.915Z,11.63
2017-09-26T21:12:54.246Z,12.13
2017-09-26T21:15:21.144Z,11.30
2017-09-26T22:27:43.796Z,11.83
2017-09-26T22:30:10.856Z,11.30
2017-09-26T22:32:37.205Z,11.00
2017-09-26T22:35:03.500Z,11.17
2017-09-26T22:37:30.183Z,12.10
2017-09-26T22:48:53.119Z,11.87
2017-09-26T22:51:20.658Z,12.33
2017-09-26T22:53:47.809Z,13.00
2017-09-26T22:56:14.918Z,10.97
2017-09-26T22:58:41.368Z,12.57
2017-09-26T23:01:07.640Z,11.40
2017-09-26T23:03:34.084Z,12.17
2017-09-26T23:06:00.394Z,12.10
2017-09-26T23:08:27.576Z,12.40
2017-09-26T23:10:54.584Z,12.23
2017-09-26T23:13:21.993Z,13.60
2017-09-26T23:15:48.313Z,13.03
2017-09-26T23:18:14.610Z,12.50
2017-09-26T23:20:41.740Z,12.73
2017-09-26T23:23:08.050Z,13.57
2017-09-26T23:25:34.391Z,12.63
2017-09-26T23:28:00.675Z,11.03
2017-09-26T23:30:28.108Z,12.60
2017-09-26T23:32:55.318Z,11.70
2017-09-26T23:35:21.640Z,11.70
2017-09-26T23:37:47.974Z,12.40
2017-09-26T23:40:14.286Z,13.00
2017-09-26T23:42:41.722Z,11.40
2017-09-26T23:45:08.797Z,13.60
2017-09-26T23:47:36.051Z,15.10
2017-09-26T23:50:03.524Z,12.83
2017-09-26T23:52:29.814Z,13.60
2017-09-26T23:54:56.867Z,12.23
2017-09-26T23:57:24.768Z,13.93
2017-09-26T23:59:51.028Z,13.83
